createdAt,value
2024-01-18T00:00:09.205Z,6.56
2024-01-18T00:02:55.756Z,6.58
2024-01-18T00:05:42.185Z,6.54
2024-01-18T00:08:28.719Z,6.52
2024-01-18T00:11:15.310Z,6.59
2024-01-18T00:14:02.756Z,6.67
2024-01-18T00:16:48.965Z,6.86
2024-01-18T00:19:35.889Z,6.77
2024-01-18T00:22:22.470Z,6.78
2024-01-18T00:25:09.345Z,7.04
2024-01-18T00:27:55.807Z,7.08
2024-01-18T00:30:42.559Z,7.07
2024-01-18T00:33:28.876Z,7.09
2024-01-18T00:36:15.485Z,7.24
2024-01-18T00:39:08.626Z,7.08
2024-01-18T00:41:55.081Z,7.23
2024-01-18T00:44:41.471Z,7.25
2024-01-18T00:47:28.069Z,7.50
2024-01-18T00:50:14.873Z,7.40
2024-01-18T00:53:01.120Z,7.35
2024-01-18T00:55:48.165Z,7.37
2024-01-18T00:58:34.847Z,7.46
2024-01-18T01:01:21.428Z,7.36
2024-01-18T01:04:07.707Z,7.49
2024-01-18T01:06:53.973Z,7.63
2024-01-18T01:09:40.357Z,7.47
2024-01-18T01:12:26.690Z,7.59
2024-01-18T01:15:13.490Z,7.46
2024-01-18T01:18:00.088Z,7.37
2024-01-18T01:20:46.454Z,7.40
2024-01-18T01:23:33.219Z,7.33
2024-01-18T01:26:19.568Z,7.36
2024-01-18T01:29:06.247Z,7.45
2024-01-18T01:31:53.068Z,7.43
2024-01-18T01:34:39.418Z,7.33
2024-01-18T01:37:25.743Z,7.19
2024-01-18T01:40:12.298Z,6.77
2024-01-18T01:42:58.572Z,6.82
2024-01-18T01:45:44.991Z,6.68
2024-01-18T01:48:31.855Z,6.49
2024-01-18T01:51:19.762Z,6.34
2024-01-18T01:54:07.205Z,6.24
2024-01-18T01:56:56.624Z,6.23
2024-01-18T01:59:43.173Z,6.17
2024-01-18T02:02:29.647Z,6.08
2024-01-18T02:05:16.762Z,6.00
2024-01-18T02:08:03.309Z,5.69
2024-01-18T02:10:49.788Z,5.41
2024-01-18T02:13:37.174Z,5.23
2024-01-18T02:16:24.461Z,4.66
2024-01-18T02:19:10.895Z,4.40
2024-01-18T02:21:58.444Z,4.45
2024-01-18T02:24:52.860Z,4.33
2024-01-18T02:27:39.459Z,4.62
2024-01-18T02:30:26.164Z,4.47
2024-01-18T02:33:12.859Z,4.30
2024-01-18T02:35:59.965Z,4.25
2024-01-18T02:38:46.702Z,4.26
2024-01-18T02:41:33.556Z,4.05
2024-01-18T02:44:21.033Z,3.84
2024-01-18T02:47:07.411Z,3.78
2024-01-18T02:49:53.675Z,3.49
2024-01-18T02:52:40.302Z,3.47
2024-01-18T02:55:26.659Z,3.35
2024-01-18T02:58:13.124Z,3.32
2024-01-18T03:00:59.939Z,3.36
2024-01-18T03:03:46.537Z,3.21
2024-01-18T03:06:33.179Z,3.31
2024-01-18T03:09:19.521Z,3.19
2024-01-18T03:12:06.202Z,3.26
2024-01-18T03:14:52.666Z,3.48
2024-01-18T03:17:39.291Z,3.51
2024-01-18T03:20:25.742Z,3.42
2024-01-18T03:23:13.012Z,3.31
2024-01-18T03:25:59.447Z,3.31
2024-01-18T03:28:46.108Z,3.17
2024-01-18T03:31:32.442Z,2.97
2024-01-18T03:34:19.267Z,2.94
2024-01-18T03:37:05.743Z,2.60
2024-01-18T03:39:52.184Z,2.92
2024-01-18T03:42:45.043Z,2.76
2024-01-18T03:45:32.469Z,2.78
2024-01-18T03:48:19.241Z,2.67
2024-01-18T03:51:06.643Z,2.29
2024-01-18T03:53:53.167Z,2.59
2024-01-18T03:56:39.660Z,2.43
2024-01-18T03:59:26.197Z,2.36
2024-01-18T04:02:13.472Z,2.53
2024-01-18T04:04:59.960Z,2.48
2024-01-18T04:07:46.349Z,2.37
2024-01-18T04:10:32.924Z,2.35
2024-01-18T04:13:20.253Z,2.40
2024-01-18T04:16:06.542Z,2.39
2024-01-18T04:18:53.105Z,2.32
2024-01-18T04:21:39.974Z,2.21
2024-01-18T04:24:26.609Z,2.36
2024-01-18T04:27:12.966Z,2.24
2024-01-18T04:29:59.612Z,1.99
2024-01-18T04:32:46.287Z,2.22
2024-01-18T04:35:33.898Z,2.28
2024-01-18T04:38:20.470Z,2.33
2024-01-18T04:41:07.022Z,2.37
2024-01-18T04:43:53.676Z,1.91
2024-01-18T04:46:40.218Z,2.44
2024-01-18T04:49:26.634Z,2.35
2024-01-18T04:52:13.176Z,2.39
2024-01-18T04:55:04.112Z,2.10
2024-01-18T04:57:50.973Z,2.01
2024-01-18T05:00:37.306Z,1.95
2024-01-18T05:03:23.822Z,2.23
2024-01-18T05:06:11.095Z,2.10
2024-01-18T05:08:57.638Z,2.04
2024-01-18T05:11:44.399Z,1.90
2024-01-18T05:14:31.002Z,2.05
2024-01-18T05:17:17.955Z,1.77
2024-01-18T05:20:08.681Z,1.87
2024-01-18T05:22:55.363Z,1.73
2024-01-18T05:25:41.527Z,1.80
2024-01-18T05:28:27.864Z,1.51
2024-01-18T05:31:14.241Z,1.80
2024-01-18T05:34:01.138Z,1.54
2024-01-18T05:36:49.106Z,1.54
2024-01-18T05:39:35.636Z,1.18
2024-01-18T05:42:24.737Z,1.25
2024-01-18T05:45:11.043Z,1.14
2024-01-18T05:47:57.445Z,0.95
2024-01-18T05:50:44.344Z,0.92
2024-01-18T05:53:31.030Z,1.02
2024-01-18T05:56:17.672Z,1.03
2024-01-18T05:59:04.249Z,1.22
2024-01-18T06:01:50.435Z,0.96
2024-01-18T06:04:36.988Z,0.91
2024-01-18T06:07:23.483Z,1.16
2024-01-18T06:10:10.330Z,0.91
2024-01-18T06:12:56.682Z,0.84
2024-01-18T06:15:43.264Z,0.92
2024-01-18T06:18:29.819Z,0.76
2024-01-18T06:21:16.197Z,0.89
2024-01-18T06:24:02.723Z,0.72
2024-01-18T06:26:49.870Z,0.78
2024-01-18T06:29:37.771Z,0.65
2024-01-18T06:32:56.923Z,0.80
2024-01-18T06:35:44.068Z,0.71
2024-01-18T06:38:30.520Z,0.38
2024-01-18T06:41:17.756Z,0.92
2024-01-18T06:44:04.465Z,0.75
2024-01-18T06:46:50.656Z,0.91
2024-01-18T06:49:37.443Z,0.70
2024-01-18T06:52:23.975Z,0.62
2024-01-18T06:55:10.536Z,0.71
2024-01-18T06:57:59.650Z,0.67
2024-01-18T07:00:46.489Z,0.59
2024-01-18T07:03:36.398Z,0.48
2024-01-18T07:06:22.694Z,0.52
2024-01-18T07:09:09.378Z,0.49
2024-01-18T07:11:56.003Z,0.48
2024-01-18T07:14:42.252Z,0.60
2024-01-18T07:17:29.072Z,0.47
2024-01-18T07:20:15.758Z,0.46
2024-01-18T07:23:02.353Z,0.40
2024-01-18T07:25:48.968Z,0.46
2024-01-18T07:28:36.109Z,0.52
2024-01-18T07:31:22.678Z,0.53
2024-01-18T07:34:09.493Z,0.79
2024-01-18T07:36:57.198Z,0.70
2024-01-18T07:39:43.653Z,0.63
2024-01-18T07:42:30.306Z,0.49
2024-01-18T07:45:17.058Z,0.50
2024-01-18T07:48:03.921Z,0.55
2024-01-18T07:50:50.409Z,0.48
2024-01-18T07:53:37.290Z,0.64
2024-01-18T07:56:23.734Z,0.31
2024-01-18T07:59:10.364Z,0.56
2024-01-18T08:01:57.115Z,0.46
2024-01-18T08:04:43.429Z,0.34
2024-01-18T08:07:29.997Z,0.16
2024-01-18T08:10:16.537Z,0.45
2024-01-18T08:13:03.571Z,0.38
2024-01-18T08:15:50.151Z,0.06
2024-01-18T08:18:37.892Z,0.04
2024-01-18T08:21:24.531Z,0.09
2024-01-18T08:24:11.360Z,0.37
2024-01-18T08:26:57.952Z,0.52
2024-01-18T08:29:44.523Z,0.39
2024-01-18T08:32:35.373Z,0.21
2024-01-18T08:35:21.757Z,0.30
2024-01-18T08:38:08.495Z,0.27
2024-01-18T08:40:54.935Z,0.51
2024-01-18T08:43:41.442Z,0.35
2024-01-18T08:46:27.949Z,0.48
2024-01-18T08:49:14.277Z,0.57
2024-01-18T08:52:00.940Z,0.41
2024-01-18T08:54:47.255Z,0.20
2024-01-18T08:57:33.771Z,0.14
2024-01-18T09:00:20.597Z,0.21
2024-01-18T09:03:06.889Z,0.10
2024-01-18T09:05:53.086Z,0.24
2024-01-18T09:08:39.645Z,-0.08
2024-01-18T09:11:25.973Z,0.18
2024-01-18T09:14:13.531Z,0.20
2024-01-18T09:17:00.156Z,0.15
2024-01-18T09:19:46.920Z,0.01
2024-01-18T09:22:33.551Z,0.24
2024-01-18T09:25:20.406Z,0.17
2024-01-18T09:28:08.918Z,0.33
2024-01-18T09:30:55.098Z,0.38
2024-01-18T09:33:41.494Z,0.28
2024-01-18T09:36:27.817Z,0.02
2024-01-18T09:39:17.528Z,0.23
2024-01-18T09:42:10.060Z,0.22
2024-01-18T09:45:01.155Z,0.43
2024-01-18T09:47:47.671Z,0.24
2024-01-18T09:50:40.873Z,0.07
2024-01-18T09:53:28.380Z,0.29
2024-01-18T09:56:25.388Z,0.31
2024-01-18T09:59:19.281Z,0.14
2024-01-18T10:02:05.699Z,-0.19
2024-01-18T10:04:55.402Z,0.04
2024-01-18T10:07:42.214Z,0.14
2024-01-18T10:10:29.741Z,0.02
2024-01-18T10:13:16.104Z,0.06
2024-01-18T10:16:02.620Z,0.01
2024-01-18T10:18:49.147Z,-0.49
2024-01-18T10:21:36.480Z,-0.13
2024-01-18T10:24:23.076Z,-0.13
2024-01-18T10:27:09.427Z,0.02
2024-01-18T10:29:55.895Z,0.08
2024-01-18T10:32:45.088Z,0.04
2024-01-18T10:35:33.610Z,0.21
2024-01-18T10:38:30.927Z,0.06
2024-01-18T10:41:20.988Z,0.18
2024-01-18T10:44:09.000Z,-0.28
2024-01-18T10:46:55.751Z,-0.12
2024-01-18T10:49:44.435Z,-0.04
2024-01-18T10:52:32.084Z,-0.28
2024-01-18T10:55:18.377Z,-0.03
2024-01-18T10:58:06.765Z,-0.38
2024-01-18T11:00:54.261Z,-0.22
2024-01-18T11:03:41.035Z,0.02
2024-01-18T11:06:29.123Z,-0.32
2024-01-18T11:09:16.337Z,-0.38
2024-01-18T11:12:04.396Z,-0.42
2024-01-18T11:14:50.757Z,-0.31
2024-01-18T11:17:44.539Z,-0.29
2024-01-18T11:20:31.712Z,-0.45
2024-01-18T11:23:18.220Z,-0.44
2024-01-18T11:26:06.713Z,-0.25
2024-01-18T11:29:16.176Z,-0.01
2024-01-18T11:32:12.691Z,0.09
2024-01-18T11:35:12.932Z,-0.02
2024-01-18T11:38:19.436Z,-0.07
2024-01-18T11:41:22.413Z,-0.10
2024-01-18T11:44:11.887Z,-0.06
2024-01-18T11:46:58.731Z,-0.02
2024-01-18T11:49:45.365Z,-0.28
2024-01-18T11:52:34.721Z,-0.23
2024-01-18T11:55:22.924Z,-0.26
2024-01-18T11:58:09.525Z,-0.06
2024-01-18T12:00:56.416Z,-0.37
2024-01-18T12:03:43.200Z,-0.35
2024-01-18T12:06:32.291Z,-0.27
2024-01-18T12:09:18.942Z,-0.52
2024-01-18T12:12:06.511Z,-0.40
2024-01-18T12:14:53.160Z,-0.18
2024-01-18T12:17:39.759Z,-0.80
2024-01-18T12:20:26.598Z,-0.68
2024-01-18T12:23:19.379Z,-0.38
2024-01-18T12:26:06.098Z,-0.53
2024-01-18T12:28:53.087Z,-0.39
2024-01-18T12:31:39.551Z,-0.17
2024-01-18T12:34:28.363Z,0.02
2024-01-18T12:37:15.410Z,-0.32
2024-01-18T12:40:02.054Z,-0.16
2024-01-18T12:42:50.570Z,-0.14
2024-01-18T12:45:37.002Z,-0.17
2024-01-18T12:48:25.092Z,-0.22
2024-01-18T12:51:12.247Z,-0.13
2024-01-18T12:54:00.766Z,0.19
2024-01-18T12:56:51.277Z,-0.11
2024-01-18T12:59:37.827Z,-0.14
2024-01-18T13:02:27.240Z,-0.11
2024-01-18T13:05:15.351Z,-0.06
2024-01-18T13:08:01.881Z,-0.28
2024-01-18T13:10:48.557Z,-0.09
2024-01-18T13:13:35.705Z,-0.10
2024-01-18T13:16:25.521Z,-0.22
2024-01-18T13:19:15.873Z,0.12
2024-01-18T13:22:05.189Z,-0.06
2024-01-18T13:24:52.649Z,-0.05
2024-01-18T13:27:39.281Z,-0.11
2024-01-18T13:30:26.182Z,0.06
2024-01-18T13:33:12.587Z,-0.14
2024-01-18T13:35:58.944Z,0.00
2024-01-18T13:38:45.433Z,-0.21
2024-01-18T13:41:32.591Z,-0.34
2024-01-18T13:44:19.231Z,-0.17
2024-01-18T13:47:06.310Z,-0.26
2024-01-18T13:49:52.686Z,-0.54
2024-01-18T13:52:39.223Z,-0.29
2024-01-18T13:55:26.005Z,-0.23
2024-01-18T13:58:15.830Z,-0.73
2024-01-18T14:01:02.208Z,-0.92
2024-01-18T14:03:50.554Z,-0.73
2024-01-18T14:06:37.030Z,-0.75
2024-01-18T14:09:23.779Z,-0.52
2024-01-18T14:12:10.139Z,-0.61
2024-01-18T14:14:56.822Z,-0.64
2024-01-18T14:17:43.082Z,-0.84
2024-01-18T14:20:29.696Z,-0.58
2024-01-18T14:23:16.319Z,-1.02
2024-01-18T14:26:04.433Z,-0.70
2024-01-18T14:28:50.952Z,-0.92
2024-01-18T14:31:37.971Z,-0.63
2024-01-18T14:34:24.359Z,-0.75
2024-01-18T14:37:11.524Z,-0.63
2024-01-18T14:39:58.183Z,-0.86
2024-01-18T14:42:44.797Z,-0.80
2024-01-18T14:45:31.832Z,-0.74
2024-01-18T14:48:18.945Z,-0.67
2024-01-18T14:51:05.833Z,-0.85
2024-01-18T14:53:52.007Z,-0.95
2024-01-18T14:56:38.220Z,-0.75
2024-01-18T14:59:24.926Z,-0.74
2024-01-18T15:02:11.197Z,-0.92
2024-01-18T15:04:58.243Z,-1.11
2024-01-18T15:07:45.097Z,-1.01
2024-01-18T15:10:31.774Z,-0.90
2024-01-18T15:13:19.545Z,-0.56
2024-01-18T15:16:08.608Z,-0.95
2024-01-18T15:19:03.397Z,-0.91
2024-01-18T15:21:56.223Z,-1.56
2024-01-18T15:24:42.762Z,-0.99
2024-01-18T15:27:29.070Z,-0.65
2024-01-18T15:30:16.217Z,-0.54
2024-01-18T15:33:02.657Z,-0.58
2024-01-18T15:35:49.636Z,-0.62
2024-01-18T15:38:38.899Z,-0.79
2024-01-18T15:41:25.487Z,-0.93
2024-01-18T15:44:14.102Z,-0.75
2024-01-18T15:47:08.666Z,-0.63
2024-01-18T15:49:55.051Z,-0.63
2024-01-18T15:52:43.084Z,-0.72
2024-01-18T15:55:31.085Z,-0.73
2024-01-18T15:58:17.655Z,-0.90
2024-01-18T16:01:04.417Z,-0.96
2024-01-18T16:03:50.968Z,-0.67
2024-01-18T16:06:37.663Z,-1.00
2024-01-18T16:09:24.009Z,-0.64
2024-01-18T16:12:11.048Z,-0.64
2024-01-18T16:14:57.806Z,-0.60
2024-01-18T16:17:44.190Z,-0.68
2024-01-18T16:20:30.943Z,-0.66
2024-01-18T16:23:20.327Z,-0.54
2024-01-18T16:26:08.389Z,-0.47
2024-01-18T16:28:54.818Z,-0.76
2024-01-18T16:31:41.399Z,-0.64
2024-01-18T16:34:28.571Z,-0.56
2024-01-18T16:37:15.115Z,-0.56
2024-01-18T16:40:01.654Z,-0.67
2024-01-18T16:42:48.437Z,-0.70
2024-01-18T16:45:34.935Z,-0.61
2024-01-18T16:48:21.566Z,-0.91
2024-01-18T16:51:07.947Z,-0.85
2024-01-18T16:53:54.513Z,-0.78
2024-01-18T16:56:41.296Z,-0.80
2024-01-18T16:59:27.551Z,-0.86
2024-01-18T17:02:14.093Z,-0.87
2024-01-18T17:05:00.611Z,-1.07
2024-01-18T17:07:46.953Z,-0.79
2024-01-18T17:10:33.944Z,-0.99
2024-01-18T17:13:20.677Z,-0.75
2024-01-18T17:16:07.062Z,-0.80
2024-01-18T17:18:53.341Z,-0.71
2024-01-18T17:21:39.703Z,-0.78
2024-01-18T17:24:27.453Z,-1.00
2024-01-18T17:27:14.021Z,-0.84
2024-01-18T17:30:00.398Z,-0.83
2024-01-18T17:32:48.350Z,-0.65
2024-01-18T17:35:35.868Z,-0.63
2024-01-18T17:38:22.229Z,-0.80
2024-01-18T17:41:09.127Z,-0.81
2024-01-18T17:43:55.698Z,-0.62
2024-01-18T17:46:44.495Z,-0.88
2024-01-18T17:49:32.947Z,-0.78
2024-01-18T17:52:19.625Z,-1.03
2024-01-18T17:55:06.743Z,-0.83
2024-01-18T17:57:53.082Z,-1.03
2024-01-18T18:00:40.357Z,-1.07
2024-01-18T18:03:27.482Z,-1.32
2024-01-18T18:06:14.679Z,-1.08
2024-01-18T18:09:01.365Z,-1.23
2024-01-18T18:11:47.641Z,-1.42
2024-01-18T18:14:34.023Z,-1.44
2024-01-18T18:17:20.619Z,-1.63
2024-01-18T18:20:11.755Z,-1.86
2024-01-18T18:22:58.933Z,-1.99
2024-01-18T18:25:45.374Z,-1.83
2024-01-18T18:28:32.376Z,-1.59
2024-01-18T18:31:19.085Z,-1.61
2024-01-18T18:34:15.377Z,-1.82
2024-01-18T18:37:07.087Z,-1.60
2024-01-18T18:39:53.327Z,-1.95
2024-01-18T18:42:39.816Z,-1.83
2024-01-18T18:45:26.997Z,-1.90
2024-01-18T18:48:13.725Z,-1.77
2024-01-18T18:51:00.668Z,-2.02
2024-01-18T18:53:47.984Z,-1.77
2024-01-18T18:56:34.445Z,-2.04
2024-01-18T18:59:20.827Z,-2.13
2024-01-18T19:02:07.582Z,-2.00
2024-01-18T19:04:54.330Z,-2.19
2024-01-18T19:07:40.802Z,-2.34
2024-01-18T19:10:27.278Z,-2.17
2024-01-18T19:13:13.623Z,-2.04
2024-01-18T19:16:00.000Z,-2.19
2024-01-18T19:18:46.634Z,-2.18
2024-01-18T19:21:33.204Z,-2.43
2024-01-18T19:24:19.751Z,-2.67
2024-01-18T19:27:08.770Z,-2.55
2024-01-18T19:29:54.964Z,-2.61
2024-01-18T19:32:41.735Z,-3.00
2024-01-18T19:35:28.374Z,-3.00
2024-01-18T19:38:14.597Z,-2.86
2024-01-18T19:41:01.144Z,-2.69
2024-01-18T19:43:47.406Z,-2.76
2024-01-18T19:46:33.838Z,-2.78
2024-01-18T19:49:20.360Z,-2.98
2024-01-18T19:52:08.882Z,-2.80
2024-01-18T19:54:55.104Z,-2.83
2024-01-18T19:57:43.595Z,-2.80
2024-01-18T20:00:31.594Z,-3.07
2024-01-18T20:03:18.237Z,-3.22
2024-01-18T20:06:05.334Z,-2.87
2024-01-18T20:08:51.798Z,-2.78
2024-01-18T20:11:38.324Z,-2.88
2024-01-18T20:14:25.190Z,-2.68
2024-01-18T20:17:11.444Z,-2.72
2024-01-18T20:19:58.583Z,-2.75
2024-01-18T20:22:45.964Z,-2.34
2024-01-18T20:25:34.911Z,-2.42
2024-01-18T20:28:21.797Z,-2.54
2024-01-18T20:31:08.119Z,-2.48
2024-01-18T20:33:54.491Z,-2.38
2024-01-18T20:36:41.980Z,-2.35
2024-01-18T20:39:29.567Z,-2.33
2024-01-18T20:42:17.082Z,-2.00
2024-01-18T20:45:03.693Z,-2.01
2024-01-18T20:47:50.592Z,-2.09
2024-01-18T20:50:36.973Z,-2.12
2024-01-18T20:53:25.022Z,-2.17
2024-01-18T20:56:11.528Z,-1.98
2024-01-18T20:58:57.907Z,-1.79
2024-01-18T21:01:44.286Z,-1.98
2024-01-18T21:04:31.092Z,-1.95
2024-01-18T21:07:17.376Z,-1.94
2024-01-18T21:10:04.741Z,-1.93
2024-01-18T21:12:50.995Z,-1.95
2024-01-18T21:15:37.223Z,-1.90
2024-01-18T21:18:23.591Z,-2.09
2024-01-18T21:21:10.217Z,-1.87
2024-01-18T21:23:56.732Z,-2.24
2024-01-18T21:26:43.345Z,-2.01
2024-01-18T21:29:30.092Z,-2.10
2024-01-18T21:32:16.892Z,-1.95
2024-01-18T21:35:03.580Z,-1.55
2024-01-18T21:37:50.235Z,-2.09
2024-01-18T21:40:36.386Z,-2.17
2024-01-18T21:43:22.850Z,-1.96
2024-01-18T21:46:09.839Z,-2.13
2024-01-18T21:48:56.716Z,-2.26
2024-01-18T21:51:43.445Z,-2.03
2024-01-18T21:54:31.863Z,-2.11
2024-01-18T21:57:18.042Z,-2.20
2024-01-18T22:00:06.610Z,-1.98
2024-01-18T22:02:55.863Z,-2.22
2024-01-18T22:05:42.195Z,-2.09
2024-01-18T22:08:28.599Z,-2.17
2024-01-18T22:11:15.259Z,-2.09
2024-01-18T22:14:01.868Z,-2.14
2024-01-18T22:16:48.513Z,-2.00
2024-01-18T22:19:43.413Z,-2.24
2024-01-18T22:22:37.617Z,-2.12
2024-01-18T22:25:24.213Z,-2.32
2024-01-18T22:28:11.041Z,-2.28
2024-01-18T22:30:57.492Z,-2.35
2024-01-18T22:33:45.132Z,-2.54
2024-01-18T22:36:31.635Z,-2.45
2024-01-18T22:39:18.598Z,-2.29
2024-01-18T22:42:05.306Z,-2.14
2024-01-18T22:44:51.875Z,-2.26
2024-01-18T22:47:38.759Z,-2.34
2024-01-18T22:50:25.906Z,-2.19
2024-01-18T22:53:12.665Z,-2.48
2024-01-18T22:55:59.522Z,-2.29
2024-01-18T22:58:45.914Z,-2.41
2024-01-18T23:01:32.057Z,-2.52
2024-01-18T23:04:18.680Z,-2.26
2024-01-18T23:07:05.135Z,-2.33
2024-01-18T23:09:51.598Z,-2.25
2024-01-18T23:12:38.643Z,-2.17
2024-01-18T23:15:25.535Z,-2.20
2024-01-18T23:18:11.975Z,-2.34
2024-01-18T23:20:58.630Z,-1.96
2024-01-18T23:23:45.488Z,-2.12
2024-01-18T23:26:32.136Z,-2.05
2024-01-18T23:29:18.692Z,-2.17
2024-01-18T23:32:06.698Z,-2.19
2024-01-18T23:34:53.165Z,-2.19
2024-01-18T23:37:39.651Z,-2.10
2024-01-18T23:40:26.175Z,-2.32
2024-01-18T23:43:12.508Z,-2.22
2024-01-18T23:45:59.118Z,-2.07
2024-01-18T23:48:45.676Z,-2.27
2024-01-18T23:51:32.059Z,-2.19
2024-01-18T23:54:18.514Z,-2.30
2024-01-18T23:57:05.483Z,-2.11
2024-01-18T23:59:52.209Z,-2.24
